CheckWX is a tool to help pilots better visualize weather data.  It is not intended as a substitute for an official pre-flight weather briefing.

17:58:03 UTC

KRFD TAF
Chicago / Rockford International Airport
Chicago/Rockford, Illinois, USA
KRFD 081720Z 0818/0918 18005KT P6SM SCT050 SCT250

Jul-8@
18:00 UTC

Jul-8 @ 18:00 UTC

Jul-9@
18:00 UTC

Jul-9 @ 18:00 UTC

TAF KRFD 081720Z 0818/0918 18005KT P6SM SCT050 SCT250
Wind
  • 180° at 5 KTS
Cloud Levels
  • Scattered at 5,000' AGL
  • Scattered at 25,000' AGL